sensor_id;sensor_type;location;lat;lon;timestamp;temperature;humidity
4312;DHT22;2169;49.086;9.284;2023-05-20T00:00:14;14.80;55.90
4312;DHT22;2169;49.086;9.284;2023-05-20T00:02:41;14.80;56.00
4312;DHT22;2169;49.086;9.284;2023-05-20T00:05:08;14.70;55.90
4312;DHT22;2169;49.086;9.284;2023-05-20T00:07:35;14.70;56.00
4312;DHT22;2169;49.086;9.284;2023-05-20T00:10:03;14.70;56.10
4312;DHT22;2169;49.086;9.284;2023-05-20T00:12:30;14.70;56.10
4312;DHT22;2169;49.086;9.284;2023-05-20T00:14:57;14.60;56.20
4312;DHT22;2169;49.086;9.284;2023-05-20T00:17:24;14.60;56.20
4312;DHT22;2169;49.086;9.284;2023-05-20T00:19:52;14.60;56.30
4312;DHT22;2169;49.086;9.284;2023-05-20T00:22:19;14.60;56.40
4312;DHT22;2169;49.086;9.284;2023-05-20T00:24:46;14.60;56.40
4312;DHT22;2169;49.086;9.284;2023-05-20T00:27:14;14.60;56.50
4312;DHT22;2169;49.086;9.284;2023-05-20T00:29:40;14.60;56.50
4312;DHT22;2169;49.086;9.284;2023-05-20T00:32:07;14.50;56.50
4312;DHT22;2169;49.086;9.284;2023-05-20T00:34:34;14.50;56.60
4312;DHT22;2169;49.086;9.284;2023-05-20T00:37:01;14.50;56.70
4312;DHT22;2169;49.086;9.284;2023-05-20T00:39:27;14.50;56.80
4312;DHT22;2169;49.086;9.284;2023-05-20T00:41:55;14.50;56.90
4312;DHT22;2169;49.086;9.284;2023-05-20T00:44:26;14.40;56.80
4312;DHT22;2169;49.086;9.284;2023-05-20T00:46:53;14.40;57.50
4312;DHT22;2169;49.086;9.284;2023-05-20T00:49:20;14.40;57.00
4312;DHT22;2169;49.086;9.284;2023-05-20T00:51:48;14.40;57.00
4312;DHT22;2169;49.086;9.284;2023-05-20T00:54:15;14.40;57.00
4312;DHT22;2169;49.086;9.284;2023-05-20T00:56:42;14.40;57.10
4312;DHT22;2169;49.086;9.284;2023-05-20T00:59:09;14.30;57.10
4312;DHT22;2169;49.086;9.284;2023-05-20T01:01:37;14.30;57.10
4312;DHT22;2169;49.086;9.284;2023-05-20T01:04:04;14.30;57.20
4312;DHT22;2169;49.086;9.284;2023-05-20T01:06:31;14.30;57.30
4312;DHT22;2169;49.086;9.284;2023-05-20T01:08:58;14.30;57.30
4312;DHT22;2169;49.086;9.284;2023-05-20T01:11:28;14.30;57.30
4312;DHT22;2169;49.086;9.284;2023-05-20T01:13:59;14.30;57.40
4312;DHT22;2169;49.086;9.284;2023-05-20T01:16:28;14.30;57.50
4312;DHT22;2169;49.086;9.284;2023-05-20T01:19:01;14.30;57.60
4312;DHT22;2169;49.086;9.284;2023-05-20T01:21:29;14.30;57.60
4312;DHT22;2169;49.086;9.284;2023-05-20T01:23:58;14.30;57.70
4312;DHT22;2169;49.086;9.284;2023-05-20T01:26:26;14.30;57.70
4312;DHT22;2169;49.086;9.284;2023-05-20T01:28:53;14.30;57.70
4312;DHT22;2169;49.086;9.284;2023-05-20T01:31:24;14.30;57.70
4312;DHT22;2169;49.086;9.284;2023-05-20T01:33:54;14.30;57.80
4312;DHT22;2169;49.086;9.284;2023-05-20T01:36:22;14.30;57.80
4312;DHT22;2169;49.086;9.284;2023-05-20T01:38:52;14.30;57.90
4312;DHT22;2169;49.086;9.284;2023-05-20T01:41:21;14.30;58.60
4312;DHT22;2169;49.086;9.284;2023-05-20T01:43:49;14.30;58.00
4312;DHT22;2169;49.086;9.284;2023-05-20T01:46:16;14.30;58.00
4312;DHT22;2169;49.086;9.284;2023-05-20T01:48:42;14.30;58.00
4312;DHT22;2169;49.086;9.284;2023-05-20T01:51:10;14.30;58.10
4312;DHT22;2169;49.086;9.284;2023-05-20T01:53:36;14.30;58.10
4312;DHT22;2169;49.086;9.284;2023-05-20T01:56:04;14.30;58.20
4312;DHT22;2169;49.086;9.284;2023-05-20T01:58:32;14.30;58.20
4312;DHT22;2169;49.086;9.284;2023-05-20T02:00:59;14.30;58.30
4312;DHT22;2169;49.086;9.284;2023-05-20T02:03:26;14.30;58.80
4312;DHT22;2169;49.086;9.284;2023-05-20T02:05:53;14.30;58.30
4312;DHT22;2169;49.086;9.284;2023-05-20T02:08:19;14.30;58.30
4312;DHT22;2169;49.086;9.284;2023-05-20T02:10:47;14.30;58.30
4312;DHT22;2169;49.086;9.284;2023-05-20T02:13:14;14.30;58.40
4312;DHT22;2169;49.086;9.284;2023-05-20T02:15:42;14.30;58.40
4312;DHT22;2169;49.086;9.284;2023-05-20T02:18:09;14.30;58.40
4312;DHT22;2169;49.086;9.284;2023-05-20T02:20:37;14.30;58.40
4312;DHT22;2169;49.086;9.284;2023-05-20T02:23:03;14.30;58.40
4312;DHT22;2169;49.086;9.284;2023-05-20T02:25:31;14.30;58.50
4312;DHT22;2169;49.086;9.284;2023-05-20T02:27:57;14.40;58.50
4312;DHT22;2169;49.086;9.284;2023-05-20T02:30:25;14.40;58.50
4312;DHT22;2169;49.086;9.284;2023-05-20T02:33:02;14.30;58.50
4312;DHT22;2169;49.086;9.284;2023-05-20T02:35:30;14.40;58.60
4312;DHT22;2169;49.086;9.284;2023-05-20T02:37:56;14.40;58.60
4312;DHT22;2169;49.086;9.284;2023-05-20T02:40:23;14.40;58.60
4312;DHT22;2169;49.086;9.284;2023-05-20T02:42:50;14.30;59.20
4312;DHT22;2169;49.086;9.284;2023-05-20T02:45:16;14.30;58.60
4312;DHT22;2169;49.086;9.284;2023-05-20T02:47:43;14.40;58.70
4312;DHT22;2169;49.086;9.284;2023-05-20T02:50:11;14.30;58.70
4312;DHT22;2169;49.086;9.284;2023-05-20T02:52:38;14.30;58.70
4312;DHT22;2169;49.086;9.284;2023-05-20T02:55:07;14.30;58.80
4312;DHT22;2169;49.086;9.284;2023-05-20T02:57:34;14.30;58.80
4312;DHT22;2169;49.086;9.284;2023-05-20T03:00:03;14.30;58.90
4312;DHT22;2169;49.086;9.284;2023-05-20T03:02:31;14.30;58.90
4312;DHT22;2169;49.086;9.284;2023-05-20T03:04:58;14.20;58.90
4312;DHT22;2169;49.086;9.284;2023-05-20T03:07:26;14.30;59.00
4312;DHT22;2169;49.086;9.284;2023-05-20T03:09:53;14.20;58.90
4312;DHT22;2169;49.086;9.284;2023-05-20T03:12:20;14.20;59.00
4312;DHT22;2169;49.086;9.284;2023-05-20T03:14:46;14.20;59.00
4312;DHT22;2169;49.086;9.284;2023-05-20T03:17:13;14.20;59.10
4312;DHT22;2169;49.086;9.284;2023-05-20T03:19:40;14.20;59.10
4312;DHT22;2169;49.086;9.284;2023-05-20T03:22:06;14.20;59.20
4312;DHT22;2169;49.086;9.284;2023-05-20T03:24:35;14.20;59.20
4312;DHT22;2169;49.086;9.284;2023-05-20T03:27:02;14.20;59.20
4312;DHT22;2169;49.086;9.284;2023-05-20T03:29:28;14.20;59.20
4312;DHT22;2169;49.086;9.284;2023-05-20T03:31:55;14.20;59.20
4312;DHT22;2169;49.086;9.284;2023-05-20T03:34:22;14.20;59.30
4312;DHT22;2169;49.086;9.284;2023-05-20T03:36:50;14.20;59.30
4312;DHT22;2169;49.086;9.284;2023-05-20T03:39:17;14.20;59.40
4312;DHT22;2169;49.086;9.284;2023-05-20T03:41:45;14.20;59.40
4312;DHT22;2169;49.086;9.284;2023-05-20T03:44:11;14.20;59.40
4312;DHT22;2169;49.086;9.284;2023-05-20T03:46:38;14.20;59.50
4312;DHT22;2169;49.086;9.284;2023-05-20T03:49:05;14.20;59.50
4312;DHT22;2169;49.086;9.284;2023-05-20T03:51:32;14.20;59.60
4312;DHT22;2169;49.086;9.284;2023-05-20T03:53:58;14.20;59.60
4312;DHT22;2169;49.086;9.284;2023-05-20T03:56:25;14.20;59.70
4312;DHT22;2169;49.086;9.284;2023-05-20T03:58:53;14.20;59.70
4312;DHT22;2169;49.086;9.284;2023-05-20T04:01:20;14.20;59.70
4312;DHT22;2169;49.086;9.284;2023-05-20T04:03:50;14.20;59.70
4312;DHT22;2169;49.086;9.284;2023-05-20T04:06:16;14.20;59.70
4312;DHT22;2169;49.086;9.284;2023-05-20T04:08:43;14.20;59.70
4312;DHT22;2169;49.086;9.284;2023-05-20T04:11:10;14.20;59.70
4312;DHT22;2169;49.086;9.284;2023-05-20T04:13:37;14.20;59.80
4312;DHT22;2169;49.086;9.284;2023-05-20T04:16:05;14.20;59.80
4312;DHT22;2169;49.086;9.284;2023-05-20T04:18:32;14.30;59.90
4312;DHT22;2169;49.086;9.284;2023-05-20T04:21:03;14.30;59.90
4312;DHT22;2169;49.086;9.284;2023-05-20T04:23:30;14.30;59.90
4312;DHT22;2169;49.086;9.284;2023-05-20T04:25:57;14.30;59.90
4312;DHT22;2169;49.086;9.284;2023-05-20T04:28:27;14.30;59.90
4312;DHT22;2169;49.086;9.284;2023-05-20T04:30:59;14.30;60.00
4312;DHT22;2169;49.086;9.284;2023-05-20T04:33:28;14.30;60.00
4312;DHT22;2169;49.086;9.284;2023-05-20T04:35:55;14.30;60.10
4312;DHT22;2169;49.086;9.284;2023-05-20T04:38:23;14.30;60.10
4312;DHT22;2169;49.086;9.284;2023-05-20T04:40:54;14.30;60.10
4312;DHT22;2169;49.086;9.284;2023-05-20T04:43:22;14.30;60.10
4312;DHT22;2169;49.086;9.284;2023-05-20T04:48:17;14.30;60.10
4312;DHT22;2169;49.086;9.284;2023-05-20T04:50:45;14.30;60.20
4312;DHT22;2169;49.086;9.284;2023-05-20T04:53:12;14.30;60.20
4312;DHT22;2169;49.086;9.284;2023-05-20T04:55:39;14.30;60.30
4312;DHT22;2169;49.086;9.284;2023-05-20T04:58:07;14.30;60.40
4312;DHT22;2169;49.086;9.284;2023-05-20T05:00:39;14.30;60.40
4312;DHT22;2169;49.086;9.284;2023-05-20T05:03:06;14.30;60.50
4312;DHT22;2169;49.086;9.284;2023-05-20T05:05:33;14.40;60.60
4312;DHT22;2169;49.086;9.284;2023-05-20T05:08:02;14.40;60.70
4312;DHT22;2169;49.086;9.284;2023-05-20T05:10:29;14.40;60.70
4312;DHT22;2169;49.086;9.284;2023-05-20T05:12:56;14.50;60.80
4312;DHT22;2169;49.086;9.284;2023-05-20T05:15:22;14.50;60.80
4312;DHT22;2169;49.086;9.284;2023-05-20T05:17:49;14.50;60.80
4312;DHT22;2169;49.086;9.284;2023-05-20T05:20:17;14.60;60.90
4312;DHT22;2169;49.086;9.284;2023-05-20T05:22:43;14.60;60.90
4312;DHT22;2169;49.086;9.284;2023-05-20T05:25:13;14.70;61.00
4312;DHT22;2169;49.086;9.284;2023-05-20T05:27:39;14.70;60.90
4312;DHT22;2169;49.086;9.284;2023-05-20T05:30:07;14.70;60.90
4312;DHT22;2169;49.086;9.284;2023-05-20T05:32:35;14.80;61.00
4312;DHT22;2169;49.086;9.284;2023-05-20T05:35:01;14.80;61.00
4312;DHT22;2169;49.086;9.284;2023-05-20T05:37:28;14.80;61.00
4312;DHT22;2169;49.086;9.284;2023-05-20T05:39:55;14.90;61.00
4312;DHT22;2169;49.086;9.284;2023-05-20T05:42:23;14.90;61.00
4312;DHT22;2169;49.086;9.284;2023-05-20T05:44:50;15.00;61.10
4312;DHT22;2169;49.086;9.284;2023-05-20T05:47:17;15.00;61.10
4312;DHT22;2169;49.086;9.284;2023-05-20T05:49:44;15.00;61.20
4312;DHT22;2169;49.086;9.284;2023-05-20T05:52:11;15.10;61.30
4312;DHT22;2169;49.086;9.284;2023-05-20T05:54:38;15.20;61.40
4312;DHT22;2169;49.086;9.284;2023-05-20T05:57:05;15.30;61.50
4312;DHT22;2169;49.086;9.284;2023-05-20T05:59:33;15.30;61.50
4312;DHT22;2169;49.086;9.284;2023-05-20T06:02:00;15.50;61.80
4312;DHT22;2169;49.086;9.284;2023-05-20T06:04:27;15.60;61.90
4312;DHT22;2169;49.086;9.284;2023-05-20T06:06:53;15.70;61.90
4312;DHT22;2169;49.086;9.284;2023-05-20T06:09:20;15.80;61.80
4312;DHT22;2169;49.086;9.284;2023-05-20T06:11:47;15.90;61.90
4312;DHT22;2169;49.086;9.284;2023-05-20T06:14:14;16.00;61.90
4312;DHT22;2169;49.086;9.284;2023-05-20T06:16:42;16.10;62.00
4312;DHT22;2169;49.086;9.284;2023-05-20T06:19:09;16.30;62.00
4312;DHT22;2169;49.086;9.284;2023-05-20T06:21:36;16.40;61.80
4312;DHT22;2169;49.086;9.284;2023-05-20T06:24:03;16.50;61.70
4312;DHT22;2169;49.086;9.284;2023-05-20T06:26:30;16.60;61.50
4312;DHT22;2169;49.086;9.284;2023-05-20T06:28:56;16.70;61.50
4312;DHT22;2169;49.086;9.284;2023-05-20T06:31:23;16.90;61.50
4312;DHT22;2169;49.086;9.284;2023-05-20T06:33:52;17.10;61.40
4312;DHT22;2169;49.086;9.284;2023-05-20T06:36:18;17.20;61.20
4312;DHT22;2169;49.086;9.284;2023-05-20T06:38:45;17.30;61.10
4312;DHT22;2169;49.086;9.284;2023-05-20T06:41:12;17.40;60.90
4312;DHT22;2169;49.086;9.284;2023-05-20T06:43:39;17.60;60.90
4312;DHT22;2169;49.086;9.284;2023-05-20T06:46:05;17.70;60.70
4312;DHT22;2169;49.086;9.284;2023-05-20T06:48:32;17.90;60.60
4312;DHT22;2169;49.086;9.284;2023-05-20T06:51:00;18.10;60.40
4312;DHT22;2169;49.086;9.284;2023-05-20T06:53:27;18.20;60.00
4312;DHT22;2169;49.086;9.284;2023-05-20T06:55:54;18.30;59.90
4312;DHT22;2169;49.086;9.284;2023-05-20T06:58:21;18.50;59.70
4312;DHT22;2169;49.086;9.284;2023-05-20T07:00:47;18.60;59.70
4312;DHT22;2169;49.086;9.284;2023-05-20T07:03:14;18.70;59.40
4312;DHT22;2169;49.086;9.284;2023-05-20T07:05:41;18.80;59.00
4312;DHT22;2169;49.086;9.284;2023-05-20T07:08:09;18.90;58.80
4312;DHT22;2169;49.086;9.284;2023-05-20T07:10:36;19.00;58.70
4312;DHT22;2169;49.086;9.284;2023-05-20T07:13:03;19.10;58.60
4312;DHT22;2169;49.086;9.284;2023-05-20T07:15:30;19.20;58.50
4312;DHT22;2169;49.086;9.284;2023-05-20T07:17:57;19.30;58.30
4312;DHT22;2169;49.086;9.284;2023-05-20T07:20:23;19.40;58.00
4312;DHT22;2169;49.086;9.284;2023-05-20T07:22:50;19.40;58.20
4312;DHT22;2169;49.086;9.284;2023-05-20T07:25:18;19.50;57.70
4312;DHT22;2169;49.086;9.284;2023-05-20T07:27:45;19.60;57.60
4312;DHT22;2169;49.086;9.284;2023-05-20T07:30:12;19.70;57.40
4312;DHT22;2169;49.086;9.284;2023-05-20T07:32:39;19.70;57.20
4312;DHT22;2169;49.086;9.284;2023-05-20T07:35:07;19.90;57.20
4312;DHT22;2169;49.086;9.284;2023-05-20T07:37:34;20.00;56.90
4312;DHT22;2169;49.086;9.284;2023-05-20T07:40:01;20.20;56.80
4312;DHT22;2169;49.086;9.284;2023-05-20T07:42:29;20.30;56.60
4312;DHT22;2169;49.086;9.284;2023-05-20T07:44:57;20.50;56.40
4312;DHT22;2169;49.086;9.284;2023-05-20T07:47:23;20.60;56.00
4312;DHT22;2169;49.086;9.284;2023-05-20T07:49:50;20.70;55.60
4312;DHT22;2169;49.086;9.284;2023-05-20T07:52:17;20.70;55.30
4312;DHT22;2169;49.086;9.284;2023-05-20T07:54:44;20.70;55.20
4312;DHT22;2169;49.086;9.284;2023-05-20T07:57:11;20.80;55.20
4312;DHT22;2169;49.086;9.284;2023-05-20T07:59:39;20.90;55.30
4312;DHT22;2169;49.086;9.284;2023-05-20T08:02:06;21.00;55.20
4312;DHT22;2169;49.086;9.284;2023-05-20T08:04:33;21.10;55.40
4312;DHT22;2169;49.086;9.284;2023-05-20T08:07:01;21.10;54.60
4312;DHT22;2169;49.086;9.284;2023-05-20T08:09:28;21.20;54.40
4312;DHT22;2169;49.086;9.284;2023-05-20T08:11:56;21.20;54.30
4312;DHT22;2169;49.086;9.284;2023-05-20T08:14:22;21.30;54.30
4312;DHT22;2169;49.086;9.284;2023-05-20T08:16:50;21.40;54.00
4312;DHT22;2169;49.086;9.284;2023-05-20T08:19:18;21.40;53.60
4312;DHT22;2169;49.086;9.284;2023-05-20T08:21:45;21.40;53.30
4312;DHT22;2169;49.086;9.284;2023-05-20T08:24:12;21.40;53.40
4312;DHT22;2169;49.086;9.284;2023-05-20T08:26:38;21.50;53.40
4312;DHT22;2169;49.086;9.284;2023-05-20T08:29:05;21.60;53.50
4312;DHT22;2169;49.086;9.284;2023-05-20T08:31:32;21.60;53.20
4312;DHT22;2169;49.086;9.284;2023-05-20T08:34:00;21.70;52.90
4312;DHT22;2169;49.086;9.284;2023-05-20T08:36:27;21.80;52.70
4312;DHT22;2169;49.086;9.284;2023-05-20T08:38:54;21.80;52.60
4312;DHT22;2169;49.086;9.284;2023-05-20T08:41:21;21.90;52.50
4312;DHT22;2169;49.086;9.284;2023-05-20T08:43:50;21.90;52.20
4312;DHT22;2169;49.086;9.284;2023-05-20T08:46:17;22.00;52.80
4312;DHT22;2169;49.086;9.284;2023-05-20T08:48:45;22.10;52.20
4312;DHT22;2169;49.086;9.284;2023-05-20T08:51:15;22.20;52.20
4312;DHT22;2169;49.086;9.284;2023-05-20T08:53:43;22.30;51.70
4312;DHT22;2169;49.086;9.284;2023-05-20T08:56:10;22.40;51.90
4312;DHT22;2169;49.086;9.284;2023-05-20T08:58:38;22.50;51.70
4312;DHT22;2169;49.086;9.284;2023-05-20T09:01:05;22.60;51.50
4312;DHT22;2169;49.086;9.284;2023-05-20T09:03:32;22.70;51.50
4312;DHT22;2169;49.086;9.284;2023-05-20T09:06:03;22.80;51.20
4312;DHT22;2169;49.086;9.284;2023-05-20T09:08:32;23.00;51.20
4312;DHT22;2169;49.086;9.284;2023-05-20T09:10:59;23.00;50.60
4312;DHT22;2169;49.086;9.284;2023-05-20T09:13:26;23.00;50.10
4312;DHT22;2169;49.086;9.284;2023-05-20T09:15:53;23.00;49.80
4312;DHT22;2169;49.086;9.284;2023-05-20T09:18:20;23.00;49.90
4312;DHT22;2169;49.086;9.284;2023-05-20T09:20:49;23.00;49.60
4312;DHT22;2169;49.086;9.284;2023-05-20T09:23:18;23.00;49.60
4312;DHT22;2169;49.086;9.284;2023-05-20T09:25:48;23.00;49.70
4312;DHT22;2169;49.086;9.284;2023-05-20T09:28:15;23.10;49.80
4312;DHT22;2169;49.086;9.284;2023-05-20T09:30:42;23.10;49.60
4312;DHT22;2169;49.086;9.284;2023-05-20T09:33:10;23.10;49.70
4312;DHT22;2169;49.086;9.284;2023-05-20T09:35:38;23.20;49.70
4312;DHT22;2169;49.086;9.284;2023-05-20T09:38:05;23.30;49.60
4312;DHT22;2169;49.086;9.284;2023-05-20T09:40:33;23.30;49.50
4312;DHT22;2169;49.086;9.284;2023-05-20T09:43:04;23.30;49.20
4312;DHT22;2169;49.086;9.284;2023-05-20T09:45:31;23.30;49.10
4312;DHT22;2169;49.086;9.284;2023-05-20T09:48:00;23.30;48.70
4312;DHT22;2169;49.086;9.284;2023-05-20T09:50:27;23.30;48.50
4312;DHT22;2169;49.086;9.284;2023-05-20T09:52:54;23.30;48.40
4312;DHT22;2169;49.086;9.284;2023-05-20T09:55:22;23.40;48.70
4312;DHT22;2169;49.086;9.284;2023-05-20T09:57:49;23.40;48.80
4312;DHT22;2169;49.086;9.284;2023-05-20T10:00:18;23.50;48.70
4312;DHT22;2169;49.086;9.284;2023-05-20T10:02:46;23.50;48.40
4312;DHT22;2169;49.086;9.284;2023-05-20T10:05:15;23.50;48.20
4312;DHT22;2169;49.086;9.284;2023-05-20T10:08:13;23.50;48.20
4312;DHT22;2169;49.086;9.284;2023-05-20T10:10:49;23.50;48.20
4312;DHT22;2169;49.086;9.284;2023-05-20T10:13:33;23.60;48.20
4312;DHT22;2169;49.086;9.284;2023-05-20T10:16:10;23.60;48.20
4312;DHT22;2169;49.086;9.284;2023-05-20T10:18:46;23.70;48.20
4312;DHT22;2169;49.086;9.284;2023-05-20T10:21:16;23.60;47.60
4312;DHT22;2169;49.086;9.284;2023-05-20T10:23:43;23.50;48.00
4312;DHT22;2169;49.086;9.284;2023-05-20T10:26:11;23.50;48.00
4312;DHT22;2169;49.086;9.284;2023-05-20T10:28:42;23.50;47.90
4312;DHT22;2169;49.086;9.284;2023-05-20T10:31:17;23.50;47.80
4312;DHT22;2169;49.086;9.284;2023-05-20T10:33:46;23.50;48.00
4312;DHT22;2169;49.086;9.284;2023-05-20T10:36:25;23.50;47.90
4312;DHT22;2169;49.086;9.284;2023-05-20T10:38:53;23.50;47.60
4312;DHT22;2169;49.086;9.284;2023-05-20T10:41:21;23.50;47.80
4312;DHT22;2169;49.086;9.284;2023-05-20T10:43:58;23.50;47.70
4312;DHT22;2169;49.086;9.284;2023-05-20T10:46:27;23.60;47.80
4312;DHT22;2169;49.086;9.284;2023-05-20T10:48:54;23.60;47.80
4312;DHT22;2169;49.086;9.284;2023-05-20T10:51:21;23.70;47.50
4312;DHT22;2169;49.086;9.284;2023-05-20T10:53:51;23.60;47.20
4312;DHT22;2169;49.086;9.284;2023-05-20T10:56:19;23.60;47.30
4312;DHT22;2169;49.086;9.284;2023-05-20T10:58:47;23.70;47.60
4312;DHT22;2169;49.086;9.284;2023-05-20T11:01:14;23.80;47.70
4312;DHT22;2169;49.086;9.284;2023-05-20T11:03:45;23.90;47.70
4312;DHT22;2169;49.086;9.284;2023-05-20T11:06:13;24.00;47.30
4312;DHT22;2169;49.086;9.284;2023-05-20T11:08:40;24.10;47.10
4312;DHT22;2169;49.086;9.284;2023-05-20T11:11:07;24.20;47.00
4312;DHT22;2169;49.086;9.284;2023-05-20T11:13:34;24.20;46.80
4312;DHT22;2169;49.086;9.284;2023-05-20T11:16:01;24.20;46.60
4312;DHT22;2169;49.086;9.284;2023-05-20T11:18:29;24.20;46.50
4312;DHT22;2169;49.086;9.284;2023-05-20T11:20:58;24.30;46.50
4312;DHT22;2169;49.086;9.284;2023-05-20T11:23:26;24.30;46.50
4312;DHT22;2169;49.086;9.284;2023-05-20T11:25:53;24.40;46.40
4312;DHT22;2169;49.086;9.284;2023-05-20T11:28:21;24.40;46.10
4312;DHT22;2169;49.086;9.284;2023-05-20T11:30:48;24.40;45.80
4312;DHT22;2169;49.086;9.284;2023-05-20T11:33:16;24.40;45.90
4312;DHT22;2169;49.086;9.284;2023-05-20T11:35:44;24.40;45.90
4312;DHT22;2169;49.086;9.284;2023-05-20T11:38:13;24.50;45.90
4312;DHT22;2169;49.086;9.284;2023-05-20T11:40:42;24.50;45.70
4312;DHT22;2169;49.086;9.284;2023-05-20T11:43:11;24.40;45.50
4312;DHT22;2169;49.086;9.284;2023-05-20T11:45:39;24.50;45.90
4312;DHT22;2169;49.086;9.284;2023-05-20T11:48:06;24.50;45.70
4312;DHT22;2169;49.086;9.284;2023-05-20T11:50:35;24.60;45.70
4312;DHT22;2169;49.086;9.284;2023-05-20T11:53:04;24.70;45.60
4312;DHT22;2169;49.086;9.284;2023-05-20T11:55:33;24.70;45.30
4312;DHT22;2169;49.086;9.284;2023-05-20T11:58:01;24.90;45.90
4312;DHT22;2169;49.086;9.284;2023-05-20T12:00:28;24.90;45.00
4312;DHT22;2169;49.086;9.284;2023-05-20T12:02:55;24.90;44.80
4312;DHT22;2169;49.086;9.284;2023-05-20T12:05:22;24.90;44.90
4312;DHT22;2169;49.086;9.284;2023-05-20T12:07:48;25.00;44.90
4312;DHT22;2169;49.086;9.284;2023-05-20T12:10:15;24.90;44.70
4312;DHT22;2169;49.086;9.284;2023-05-20T12:12:44;24.90;44.80
4312;DHT22;2169;49.086;9.284;2023-05-20T12:15:11;25.00;44.90
4312;DHT22;2169;49.086;9.284;2023-05-20T12:17:45;25.00;44.80
4312;DHT22;2169;49.086;9.284;2023-05-20T12:20:14;25.00;44.80
4312;DHT22;2169;49.086;9.284;2023-05-20T12:22:41;25.10;44.70
4312;DHT22;2169;49.086;9.284;2023-05-20T12:25:10;25.10;44.60
4312;DHT22;2169;49.086;9.284;2023-05-20T12:27:37;25.10;44.50
4312;DHT22;2169;49.086;9.284;2023-05-20T12:30:07;25.10;44.60
4312;DHT22;2169;49.086;9.284;2023-05-20T12:32:35;25.20;44.60
4312;DHT22;2169;49.086;9.284;2023-05-20T12:35:02;25.20;44.70
4312;DHT22;2169;49.086;9.284;2023-05-20T12:37:28;25.20;44.70
4312;DHT22;2169;49.086;9.284;2023-05-20T12:39:55;25.30;44.50
4312;DHT22;2169;49.086;9.284;2023-05-20T12:42:22;25.30;44.30
4312;DHT22;2169;49.086;9.284;2023-05-20T12:44:49;25.30;44.40
4312;DHT22;2169;49.086;9.284;2023-05-20T12:47:17;25.40;44.30
4312;DHT22;2169;49.086;9.284;2023-05-20T12:49:44;25.40;44.10
4312;DHT22;2169;49.086;9.284;2023-05-20T12:52:11;25.40;44.10
4312;DHT22;2169;49.086;9.284;2023-05-20T12:54:37;25.40;43.70
4312;DHT22;2169;49.086;9.284;2023-05-20T12:57:05;25.30;43.80
4312;DHT22;2169;49.086;9.284;2023-05-20T12:59:31;25.30;44.00
4312;DHT22;2169;49.086;9.284;2023-05-20T13:01:58;25.20;43.70
4312;DHT22;2169;49.086;9.284;2023-05-20T13:04:26;25.20;43.80
4312;DHT22;2169;49.086;9.284;2023-05-20T13:06:53;25.20;43.90
4312;DHT22;2169;49.086;9.284;2023-05-20T13:09:20;25.30;44.00
4312;DHT22;2169;49.086;9.284;2023-05-20T13:11:47;25.40;43.90
4312;DHT22;2169;49.086;9.284;2023-05-20T13:14:14;25.50;44.50
4312;DHT22;2169;49.086;9.284;2023-05-20T13:16:40;25.50;43.70
4312;DHT22;2169;49.086;9.284;2023-05-20T13:19:07;25.60;43.80
4312;DHT22;2169;49.086;9.284;2023-05-20T13:21:35;25.70;43.80
4312;DHT22;2169;49.086;9.284;2023-05-20T13:24:02;25.70;43.70
4312;DHT22;2169;49.086;9.284;2023-05-20T13:26:29;25.80;44.10
4312;DHT22;2169;49.086;9.284;2023-05-20T13:28:56;25.80;43.50
4312;DHT22;2169;49.086;9.284;2023-05-20T13:31:23;25.80;43.20
4312;DHT22;2169;49.086;9.284;2023-05-20T13:33:50;25.80;43.20
4312;DHT22;2169;49.086;9.284;2023-05-20T13:36:17;25.90;43.30
4312;DHT22;2169;49.086;9.284;2023-05-20T13:38:45;25.90;43.10
4312;DHT22;2169;49.086;9.284;2023-05-20T13:41:12;25.90;43.10
4312;DHT22;2169;49.086;9.284;2023-05-20T13:43:39;25.90;42.90
4312;DHT22;2169;49.086;9.284;2023-05-20T13:46:06;26.00;43.10
4312;DHT22;2169;49.086;9.284;2023-05-20T13:48:33;26.00;43.00
4312;DHT22;2169;49.086;9.284;2023-05-20T13:51:00;26.10;42.80
4312;DHT22;2169;49.086;9.284;2023-05-20T13:53:27;26.10;42.90
4312;DHT22;2169;49.086;9.284;2023-05-20T13:55:55;26.20;43.10
4312;DHT22;2169;49.086;9.284;2023-05-20T13:58:22;26.20;43.00
4312;DHT22;2169;49.086;9.284;2023-05-20T14:00:49;26.20;42.80
4312;DHT22;2169;49.086;9.284;2023-05-20T14:03:16;26.20;42.80
4312;DHT22;2169;49.086;9.284;2023-05-20T14:05:42;26.20;42.80
4312;DHT22;2169;49.086;9.284;2023-05-20T14:08:10;26.20;42.80
4312;DHT22;2169;49.086;9.284;2023-05-20T14:10:37;26.20;42.70
4312;DHT22;2169;49.086;9.284;2023-05-20T14:13:05;26.30;42.80
4312;DHT22;2169;49.086;9.284;2023-05-20T14:15:33;26.30;42.60
4312;DHT22;2169;49.086;9.284;2023-05-20T14:17:59;26.30;42.60
4312;DHT22;2169;49.086;9.284;2023-05-20T14:20:26;26.30;42.70
4312;DHT22;2169;49.086;9.284;2023-05-20T14:22:53;26.30;42.80
4312;DHT22;2169;49.086;9.284;2023-05-20T14:25:20;26.40;42.90
4312;DHT22;2169;49.086;9.284;2023-05-20T14:27:47;26.40;42.70
4312;DHT22;2169;49.086;9.284;2023-05-20T14:30:15;26.30;42.80
4312;DHT22;2169;49.086;9.284;2023-05-20T14:32:41;26.30;42.90
4312;DHT22;2169;49.086;9.284;2023-05-20T14:35:08;26.30;42.80
4312;DHT22;2169;49.086;9.284;2023-05-20T14:37:35;26.30;42.90
4312;DHT22;2169;49.086;9.284;2023-05-20T14:40:03;26.40;43.00
4312;DHT22;2169;49.086;9.284;2023-05-20T14:42:31;26.40;43.00
4312;DHT22;2169;49.086;9.284;2023-05-20T14:44:58;26.40;42.90
4312;DHT22;2169;49.086;9.284;2023-05-20T14:47:26;26.40;42.90
4312;DHT22;2169;49.086;9.284;2023-05-20T14:49:53;26.50;43.00
4312;DHT22;2169;49.086;9.284;2023-05-20T14:52:20;26.50;43.00
4312;DHT22;2169;49.086;9.284;2023-05-20T14:54:47;26.40;42.80
4312;DHT22;2169;49.086;9.284;2023-05-20T14:57:14;26.40;42.80
4312;DHT22;2169;49.086;9.284;2023-05-20T14:59:41;26.40;43.00
4312;DHT22;2169;49.086;9.284;2023-05-20T15:02:08;26.40;43.10
4312;DHT22;2169;49.086;9.284;2023-05-20T15:04:37;26.40;43.30
4312;DHT22;2169;49.086;9.284;2023-05-20T15:07:04;26.40;43.30
4312;DHT22;2169;49.086;9.284;2023-05-20T15:09:31;26.40;43.40
4312;DHT22;2169;49.086;9.284;2023-05-20T15:11:59;26.40;43.40
4312;DHT22;2169;49.086;9.284;2023-05-20T15:14:26;26.40;43.30
4312;DHT22;2169;49.086;9.284;2023-05-20T15:16:53;26.40;43.20
4312;DHT22;2169;49.086;9.284;2023-05-20T15:19:19;26.40;43.10
4312;DHT22;2169;49.086;9.284;2023-05-20T15:21:48;26.30;43.10
4312;DHT22;2169;49.086;9.284;2023-05-20T15:24:16;26.30;43.20
4312;DHT22;2169;49.086;9.284;2023-05-20T15:26:42;26.40;43.20
4312;DHT22;2169;49.086;9.284;2023-05-20T15:29:09;26.40;43.20
4312;DHT22;2169;49.086;9.284;2023-05-20T15:31:36;26.50;43.30
4312;DHT22;2169;49.086;9.284;2023-05-20T15:34:03;26.50;43.20
4312;DHT22;2169;49.086;9.284;2023-05-20T15:36:30;26.40;43.10
4312;DHT22;2169;49.086;9.284;2023-05-20T15:38:58;26.50;43.20
4312;DHT22;2169;49.086;9.284;2023-05-20T15:41:24;26.50;43.10
4312;DHT22;2169;49.086;9.284;2023-05-20T15:43:51;26.50;43.10
4312;DHT22;2169;49.086;9.284;2023-05-20T15:46:18;26.50;42.90
4312;DHT22;2169;49.086;9.284;2023-05-20T15:48:45;26.40;42.90
4312;DHT22;2169;49.086;9.284;2023-05-20T15:51:11;26.30;42.80
4312;DHT22;2169;49.086;9.284;2023-05-20T15:53:39;26.20;42.90
4312;DHT22;2169;49.086;9.284;2023-05-20T15:56:09;26.10;43.00
4312;DHT22;2169;49.086;9.284;2023-05-20T15:58:36;26.10;42.80
4312;DHT22;2169;49.086;9.284;2023-05-20T16:01:03;25.90;43.00
4312;DHT22;2169;49.086;9.284;2023-05-20T16:03:31;25.80;43.30
4312;DHT22;2169;49.086;9.284;2023-05-20T16:05:58;25.80;43.40